Time;durP1;ratioP1;P1;durP2;ratioP2;P2;SDS_P1;SDS_P2;PMS_P1;PMS_P2;Temp;Humidity;BMP_temperature;BMP_pressure;BME280_temperature;BME280_humidity;BME280_pressure;Samples;Min_cycle;Max_cycle;Signal;HPM_P1;HPM_P2
2022/10/24 00:02:07;;;;;;;6.82;2.60;;;14.80;99.90;;;;;;4957564;28;20047;-92
2022/10/24 00:04:37;;;;;;;6.50;2.75;;;14.80;99.90;;;;;;4955184;28;20043;-92
2022/10/24 00:07:04;;;;;;;9.63;2.72;;;14.80;99.90;;;;;;4938349;28;20046;-91
2022/10/24 00:09:31;;;;;;;8.02;3.15;;;14.80;99.90;;;;;;4975526;28;20035;-91
2022/10/24 00:11:56;;;;;;;8.38;3.08;;;14.80;99.90;;;;;;4950080;28;20103;-91
2022/10/24 00:14:22;;;;;;;5.72;2.72;;;14.70;99.90;;;;;;4950491;28;20039;-91
2022/10/24 00:16:48;;;;;;;6.68;3.10;;;14.70;99.90;;;;;;4942126;28;20047;-91
2022/10/24 00:19:13;;;;;;;8.13;2.40;;;14.70;99.90;;;;;;4931331;28;20035;-92
2022/10/24 00:21:39;;;;;;;3.42;2.40;;;14.60;99.90;;;;;;4945298;28;20043;-92
2022/10/24 00:24:06;;;;;;;6.70;2.50;;;14.60;99.90;;;;;;4943803;28;20031;-91
2022/10/24 00:26:32;;;;;;;5.70;2.15;;;14.60;99.90;;;;;;4929914;28;20038;-92
2022/10/24 00:28:58;;;;;;;5.60;2.38;;;14.60;99.90;;;;;;4950771;28;20043;-92
2022/10/24 00:31:24;;;;;;;7.78;2.40;;;14.50;99.90;;;;;;4943067;28;20039;-91
2022/10/24 00:33:49;;;;;;;13.07;2.75;;;14.50;99.90;;;;;;4940389;28;20501;-92
2022/10/24 00:36:18;;;;;;;6.07;2.45;;;14.50;99.90;;;;;;4940977;28;20108;-92
2022/10/24 00:38:44;;;;;;;4.13;2.22;;;14.40;99.90;;;;;;4962214;28;20043;-92
2022/10/24 00:41:18;;;;;;;7.40;2.40;;;14.40;99.90;;;;;;4944208;28;20027;-92
2022/10/24 00:43:45;;;;;;;8.35;2.47;;;14.40;99.90;;;;;;4961054;28;20101;-91
2022/10/24 00:46:11;;;;;;;4.72;2.05;;;14.30;99.90;;;;;;4962874;28;20038;-92
2022/10/24 00:48:45;;;;;;;3.58;2.10;;;14.30;99.90;;;;;;4961331;28;20043;-91
2022/10/24 00:51:23;;;;;;;4.40;2.30;;;14.20;99.90;;;;;;4957168;28;20386;-91
2022/10/24 00:53:52;;;;;;;5.20;2.45;;;14.20;99.90;;;;;;4959325;28;20039;-91
2022/10/24 00:56:21;;;;;;;4.95;2.40;;;14.20;99.90;;;;;;4953674;28;20050;-92
2022/10/24 00:58:48;;;;;;;4.13;2.28;;;14.10;99.90;;;;;;4959374;28;20039;-92
2022/10/24 01:01:15;;;;;;;5.15;2.20;;;14.10;99.90;;;;;;4957130;28;20055;-92
2022/10/24 01:03:41;;;;;;;5.60;2.92;;;14.10;99.90;;;;;;4941307;28;20062;-91
2022/10/24 01:06:27;;;;;;;5.35;2.20;;;14.10;99.90;;;;;;4953402;28;20042;-91
2022/10/24 01:09:01;;;;;;;5.28;2.47;;;14.10;99.90;;;;;;4965017;28;20047;-92
2022/10/24 01:11:46;;;;;;;6.70;2.92;;;14.10;99.90;;;;;;4957528;28;20109;-91
2022/10/24 01:14:24;;;;;;;7.15;2.90;;;14.10;99.90;;;;;;4961605;28;20069;-92
2022/10/24 01:17:03;;;;;;;5.40;2.70;;;14.10;99.90;;;;;;4957440;28;20101;-92
2022/10/24 01:19:41;;;;;;;7.75;2.53;;;14.20;99.90;;;;;;4962640;28;20035;-92
2022/10/24 01:22:16;;;;;;;7.88;2.95;;;14.20;99.90;;;;;;4974853;28;20039;-92
2022/10/24 01:24:53;;;;;;;9.23;3.45;;;14.20;99.90;;;;;;4988919;28;20038;-91
2022/10/24 01:28:09;;;;;;;6.10;2.92;;;14.30;99.90;;;;;;4959329;28;20046;-92
2022/10/24 01:31:02;;;;;;;8.93;2.63;;;14.40;99.90;;;;;;4932558;28;20118;-91
2022/10/24 01:33:39;;;;;;;6.05;2.97;;;14.40;99.90;;;;;;4973966;28;20046;-92
2022/10/24 01:36:31;;;;;;;7.43;3.17;;;14.40;99.90;;;;;;4987023;28;20039;-90
2022/10/24 01:39:02;;;;;;;7.93;3.00;;;14.50;99.90;;;;;;4975737;28;20051;-91
2022/10/24 01:41:30;;;;;;;9.10;3.83;;;14.50;99.90;;;;;;4959227;28;20035;-91
2022/10/24 01:44:04;;;;;;;7.32;3.08;;;14.50;99.90;;;;;;4939878;28;20031;-91
2022/10/24 01:46:41;;;;;;;11.18;3.10;;;14.50;99.90;;;;;;4958373;28;20062;-90
2022/10/24 01:49:15;;;;;;;11.55;3.38;;;14.50;99.90;;;;;;4957737;28;20043;-91
2022/10/24 01:51:42;;;;;;;11.25;3.97;;;14.50;99.90;;;;;;4957571;28;20543;-91
2022/10/24 01:54:09;;;;;;;5.82;3.17;;;14.40;99.90;;;;;;4941273;28;20050;-91
2022/10/24 01:56:35;;;;;;;10.75;3.42;;;14.40;99.90;;;;;;4941215;28;20043;-91
2022/10/24 01:59:27;;;;;;;7.45;3.40;;;14.30;99.90;;;;;;4955880;28;20045;-91
2022/10/24 02:02:16;;;;;;;10.20;3.13;;;14.30;99.90;;;;;;4946076;28;20062;-92
2022/10/24 02:04:53;;;;;;;10.00;3.85;;;14.30;99.90;;;;;;4955595;28;20043;-91
2022/10/24 02:07:21;;;;;;;9.82;3.38;;;14.20;99.90;;;;;;4957765;28;20050;-91
2022/10/24 02:09:51;;;;;;;7.22;3.47;;;14.20;99.90;;;;;;4990162;28;20082;-90
2022/10/24 02:12:20;;;;;;;9.73;3.65;;;14.20;99.90;;;;;;4959535;28;20055;-91
2022/10/24 02:14:54;;;;;;;8.45;3.40;;;14.20;99.90;;;;;;4956472;28;20043;-93
2022/10/24 02:17:19;;;;;;;7.40;3.30;;;14.20;99.90;;;;;;4955287;28;20038;-92
2022/10/24 02:19:46;;;;;;;8.55;3.58;;;14.20;99.90;;;;;;4960886;28;20220;-92
2022/10/24 02:22:21;;;;;;;7.95;3.67;;;14.10;99.90;;;;;;4941859;28;20101;-91
2022/10/24 02:25:29;;;;;;;11.38;3.85;;;14.10;99.90;;;;;;4962658;28;20035;-92
2022/10/24 02:28:13;;;;;;;12.55;3.28;;;14.10;99.90;;;;;;4907692;29;20040;-91
2022/10/24 02:30:43;;;;;;;7.57;3.63;;;14.00;99.90;;;;;;4904057;29;20568;-92
2022/10/24 02:33:10;;;;;;;9.35;3.55;;;14.00;99.90;;;;;;4950040;28;20050;-92
2022/10/24 02:35:38;;;;;;;14.35;4.10;;;13.90;99.90;;;;;;4957645;28;20062;-92
2022/10/24 02:38:10;;;;;;;7.57;3.13;;;13.90;99.90;;;;;;4986845;28;20509;-92
2022/10/24 02:40:36;;;;;;;9.25;3.42;;;13.90;99.90;;;;;;4949282;28;20448;-92
2022/10/24 02:43:04;;;;;;;7.00;3.65;;;13.90;99.90;;;;;;4941853;28;20404;-92
2022/10/24 02:45:33;;;;;;;9.25;3.25;;;13.80;99.90;;;;;;4956190;28;20050;-91
2022/10/24 02:48:03;;;;;;;12.05;3.72;;;13.80;99.90;;;;;;4938416;28;20404;-91
2022/10/24 02:50:31;;;;;;;8.10;3.13;;;13.80;99.90;;;;;;4957778;28;20074;-92
2022/10/24 02:52:57;;;;;;;7.63;3.50;;;13.70;99.90;;;;;;4977338;28;20093;-92
2022/10/24 02:55:22;;;;;;;13.13;3.83;;;13.70;99.90;;;;;;4941585;28;20121;-92
2022/10/24 02:57:48;;;;;;;9.18;3.33;;;13.70;99.90;;;;;;4940889;28;20203;-92
2022/10/24 03:00:14;;;;;;;8.07;3.63;;;13.60;99.90;;;;;;4948113;28;20031;-92
2022/10/24 03:02:40;;;;;;;8.10;3.35;;;13.60;99.90;;;;;;4938772;28;20051;-92
2022/10/24 03:05:06;;;;;;;8.25;3.45;;;13.60;99.90;;;;;;4941039;28;20401;-92
2022/10/24 03:07:31;;;;;;;7.70;3.47;;;13.50;99.90;;;;;;4943227;28;20039;-92
2022/10/24 03:09:57;;;;;;;8.15;3.25;;;13.50;99.90;;;;;;4940419;28;20122;-92
2022/10/24 03:12:23;;;;;;;9.27;3.65;;;13.50;99.90;;;;;;4927174;28;20396;-92
2022/10/24 03:14:49;;;;;;;9.45;3.42;;;13.50;99.90;;;;;;4909931;28;20047;-91
2022/10/24 03:17:15;;;;;;;11.32;3.67;;;13.40;99.90;;;;;;4925978;28;20615;-92
2022/10/24 03:19:40;;;;;;;6.28;3.50;;;13.40;99.90;;;;;;4910795;28;20043;-92
2022/10/24 03:22:06;;;;;;;6.78;3.35;;;13.40;99.90;;;;;;4940993;28;20143;-92
2022/10/24 03:24:32;;;;;;;7.60;3.50;;;13.40;99.90;;;;;;4940477;28;20038;-91
2022/10/24 03:26:57;;;;;;;11.20;3.83;;;13.30;99.90;;;;;;4941344;28;20046;-92
2022/10/24 03:29:23;;;;;;;6.80;3.50;;;13.30;99.90;;;;;;4916573;28;20039;-92
2022/10/24 03:31:49;;;;;;;9.20;3.92;;;13.30;99.90;;;;;;4923551;29;20045;-92
2022/10/24 03:34:14;;;;;;;8.65;3.28;;;13.30;99.90;;;;;;4940998;28;20118;-91
2022/10/24 03:36:40;;;;;;;10.25;3.97;;;13.30;99.90;;;;;;4924694;28;20035;-91
2022/10/24 03:39:06;;;;;;;10.57;3.30;;;13.40;99.90;;;;;;4927824;28;21932;-92
2022/10/24 03:41:31;;;;;;;10.10;3.90;;;13.40;99.90;;;;;;4951069;28;20034;-93
2022/10/24 03:43:57;;;;;;;7.10;3.72;;;13.50;99.90;;;;;;4928302;28;20045;-91
2022/10/24 03:46:23;;;;;;;7.32;3.25;;;13.60;99.90;;;;;;4912118;28;20031;-92
2022/10/24 03:48:48;;;;;;;5.78;3.17;;;13.60;99.90;;;;;;4944623;28;20070;-92
2022/10/24 03:51:14;;;;;;;15.30;3.72;;;13.70;99.90;;;;;;4946474;28;20122;-92
2022/10/24 03:53:40;;;;;;;11.38;3.75;;;13.70;99.90;;;;;;4929720;28;20043;-93
2022/10/24 03:56:07;;;;;;;6.80;3.15;;;13.80;99.90;;;;;;4959282;28;20086;-93
2022/10/24 03:58:32;;;;;;;9.18;3.75;;;14.00;99.90;;;;;;4951457;28;20045;-93
2022/10/24 04:00:58;;;;;;;8.00;3.28;;;14.00;99.90;;;;;;4929473;28;20051;-93
2022/10/24 04:03:26;;;;;;;13.57;3.45;;;14.20;99.90;;;;;;4936165;28;20054;-92
2022/10/24 04:05:52;;;;;;;6.88;3.25;;;14.30;99.90;;;;;;4987120;28;20095;-93
2022/10/24 04:08:18;;;;;;;5.20;2.53;;;14.30;99.90;;;;;;4988876;28;20062;-93
2022/10/24 04:10:44;;;;;;;6.15;3.10;;;14.50;99.90;;;;;;4957520;28;20046;-94
2022/10/24 04:13:10;;;;;;;7.13;2.60;;;14.50;99.90;;;;;;4986329;28;20042;-93
2022/10/24 04:15:36;;;;;;;10.82;2.63;;;14.70;99.90;;;;;;4958545;28;20039;-92
2022/10/24 04:18:02;;;;;;;6.32;2.83;;;14.70;99.90;;;;;;4941528;28;20472;-92
2022/10/24 04:20:28;;;;;;;5.88;2.30;;;14.80;99.90;;;;;;4939408;28;20035;-92
2022/10/24 04:22:54;;;;;;;7.57;2.58;;;14.80;99.90;;;;;;4957967;28;20038;-93
2022/10/24 04:25:19;;;;;;;6.10;2.95;;;14.80;99.90;;;;;;4958367;28;20046;-92
2022/10/24 04:27:45;;;;;;;5.63;2.35;;;14.80;99.90;;;;;;4934249;28;20070;-92
2022/10/24 04:30:12;;;;;;;7.55;2.40;;;14.80;99.90;;;;;;4964189;28;20042;-92
2022/10/24 04:32:38;;;;;;;8.50;3.03;;;14.80;99.90;;;;;;4940147;28;20074;-93
2022/10/24 04:35:04;;;;;;;7.18;2.47;;;14.90;99.90;;;;;;4938712;28;20040;-90
2022/10/24 04:37:30;;;;;;;7.50;2.53;;;15.00;99.90;;;;;;4955686;28;20042;-92
2022/10/24 04:39:56;;;;;;;5.53;2.38;;;14.90;99.90;;;;;;4971610;28;20574;-91
2022/10/24 04:42:23;;;;;;;7.03;2.47;;;15.00;99.90;;;;;;4968047;28;20038;-91
2022/10/24 04:44:48;;;;;;;12.68;2.78;;;14.90;99.90;;;;;;4938877;28;20110;-91
2022/10/24 04:47:14;;;;;;;7.28;2.17;;;14.90;99.90;;;;;;4938396;28;20222;-91
2022/10/24 04:49:40;;;;;;;4.97;2.30;;;14.90;99.90;;;;;;4953093;28;20050;-91
2022/10/24 04:52:06;;;;;;;6.45;2.50;;;14.90;99.90;;;;;;4944623;28;20035;-92
2022/10/24 04:54:31;;;;;;;10.45;2.33;;;14.90;99.90;;;;;;4959127;28;20531;-92
2022/10/24 04:56:57;;;;;;;4.32;2.47;;;14.80;99.90;;;;;;4939592;28;20038;-91
2022/10/24 04:59:23;;;;;;;9.85;2.15;;;14.70;99.90;;;;;;4924185;28;20041;-91
2022/10/24 05:01:49;;;;;;;5.35;2.30;;;14.60;99.90;;;;;;4922646;28;20078;-91
2022/10/24 05:04:14;;;;;;;8.82;2.65;;;14.60;99.90;;;;;;4963277;28;20035;-92
2022/10/24 05:06:40;;;;;;;4.70;2.33;;;14.60;99.90;;;;;;4944916;28;20054;-92
2022/10/24 05:09:06;;;;;;;7.00;2.60;;;14.60;99.90;;;;;;4970163;28;20109;-92
2022/10/24 05:11:32;;;;;;;7.28;2.17;;;14.60;99.90;;;;;;4942901;28;20137;-91
2022/10/24 05:13:58;;;;;;;4.50;2.15;;;14.70;99.90;;;;;;4945603;28;20070;-92
2022/10/24 05:16:23;;;;;;;3.83;1.92;;;14.70;99.90;;;;;;4942718;28;20039;-92
2022/10/24 05:18:49;;;;;;;6.45;2.03;;;14.70;99.90;;;;;;4932191;28;20405;-92
2022/10/24 05:21:15;;;;;;;8.43;2.45;;;14.70;99.90;;;;;;4982161;28;20066;-91
2022/10/24 05:23:41;;;;;;;7.57;2.10;;;14.60;99.90;;;;;;4948718;28;20054;-91
2022/10/24 05:26:06;;;;;;;6.43;2.47;;;14.60;99.90;;;;;;4948391;28;20042;-92
2022/10/24 05:28:32;;;;;;;5.50;2.25;;;14.50;99.90;;;;;;4948589;28;20039;-91
2022/10/24 05:30:58;;;;;;;6.03;2.45;;;14.40;99.90;;;;;;4949096;28;20035;-93
2022/10/24 05:33:24;;;;;;;7.65;2.10;;;14.40;99.90;;;;;;4946407;28;20043;-93
2022/10/24 05:35:50;;;;;;;6.80;2.35;;;14.30;99.90;;;;;;4933460;28;20046;-92
2022/10/24 05:38:16;;;;;;;8.48;2.72;;;14.30;99.90;;;;;;4939424;28;20498;-94
2022/10/24 05:40:42;;;;;;;11.45;2.45;;;14.30;99.90;;;;;;4954923;28;20118;-92
2022/10/24 05:43:08;;;;;;;5.03;2.35;;;14.30;99.90;;;;;;4953718;28;20451;-92
2022/10/24 05:45:34;;;;;;;7.68;2.17;;;14.30;99.90;;;;;;4939927;28;20066;-93
2022/10/24 05:48:00;;;;;;;8.40;2.85;;;14.30;99.90;;;;;;4945746;28;20046;-94
2022/10/24 05:50:26;;;;;;;5.38;1.92;;;14.30;99.90;;;;;;4937985;28;20042;-90
2022/10/24 05:52:52;;;;;;;8.48;4.20;;;14.30;99.90;;;;;;4948417;28;20045;-93
2022/10/24 05:55:18;;;;;;;4.85;2.10;;;14.30;99.90;;;;;;4952873;28;20074;-93
2022/10/24 05:57:44;;;;;;;5.18;2.10;;;14.30;99.90;;;;;;4949004;28;20042;-92
2022/10/24 06:00:13;;;;;;;7.28;2.67;;;14.30;99.90;;;;;;4982407;28;20027;-92
2022/10/24 06:02:39;;;;;;;6.57;1.92;;;14.30;99.90;;;;;;4950831;28;20704;-93
2022/10/24 06:05:06;;;;;;;5.10;2.03;;;14.30;99.90;;;;;;4947641;28;20070;-92
2022/10/24 06:07:32;;;;;;;6.15;2.20;;;14.30;99.90;;;;;;4939191;28;20039;-92
2022/10/24 06:09:58;;;;;;;6.00;2.00;;;14.30;99.90;;;;;;4934322;28;20094;-92
2022/10/24 06:12:23;;;;;;;3.17;1.88;;;14.30;99.90;;;;;;4966362;28;20035;-91
2022/10/24 06:14:49;;;;;;;14.70;3.53;;;14.30;99.90;;;;;;4929181;28;20050;-89
2022/10/24 06:17:15;;;;;;;6.63;2.67;;;14.30;99.90;;;;;;4937201;28;20043;-89
2022/10/24 06:19:41;;;;;;;6.22;2.13;;;14.30;99.90;;;;;;4940300;28;20078;-88
2022/10/24 06:22:07;;;;;;;8.32;2.28;;;14.20;99.90;;;;;;4912051;28;20043;-90
2022/10/24 06:24:35;;;;;;;7.60;2.35;;;14.20;99.90;;;;;;4950609;28;20457;-88
2022/10/24 06:27:00;;;;;;;7.53;2.83;;;14.30;99.90;;;;;;4942357;28;20041;-90
2022/10/24 06:29:26;;;;;;;8.80;2.47;;;14.20;99.90;;;;;;4924394;28;20031;-90
2022/10/24 06:31:51;;;;;;;6.05;2.03;;;14.30;99.90;;;;;;4936337;28;20051;-89
2022/10/24 06:34:17;;;;;;;7.28;2.10;;;14.30;99.90;;;;;;4931655;28;20780;-90
2022/10/24 06:36:43;;;;;;;12.68;2.17;;;14.40;99.90;;;;;;4954174;28;20037;-91
2022/10/24 06:39:09;;;;;;;6.13;2.00;;;14.40;99.90;;;;;;4953202;28;20050;-90
2022/10/24 06:41:34;;;;;;;7.07;2.20;;;14.40;99.90;;;;;;4929190;28;20035;-90
2022/10/24 06:44:01;;;;;;;6.68;1.98;;;14.40;99.90;;;;;;4921163;28;20042;-90
2022/10/24 06:46:27;;;;;;;9.63;2.75;;;14.40;99.90;;;;;;4942938;28;20094;-90
2022/10/24 06:48:54;;;;;;;8.73;2.45;;;14.50;99.90;;;;;;4954046;28;20038;-90
2022/10/24 06:51:20;;;;;;;5.97;2.00;;;14.50;99.90;;;;;;4922437;28;20063;-91
2022/10/24 06:53:46;;;;;;;4.70;1.98;;;14.50;99.90;;;;;;4942461;28;20429;-90
2022/10/24 06:56:13;;;;;;;11.90;2.47;;;14.50;99.90;;;;;;4931258;28;20039;-91
2022/10/24 06:58:39;;;;;;;10.25;2.58;;;14.50;99.90;;;;;;4951561;28;20035;-90
2022/10/24 07:01:11;;;;;;;6.72;2.00;;;14.50;99.90;;;;;;4959797;28;20046;-90
2022/10/24 07:03:37;;;;;;;5.83;2.33;;;14.50;99.90;;;;;;4946875;28;20740;-91
2022/10/24 07:06:19;;;;;;;9.40;2.47;;;14.60;99.90;;;;;;4932488;28;20042;-91
2022/10/24 07:08:45;;;;;;;7.05;2.00;;;14.60;99.90;;;;;;4951138;28;20053;-91
2022/10/24 07:11:11;;;;;;;7.88;2.25;;;14.60;99.90;;;;;;4928480;28;20483;-90
2022/10/24 07:13:37;;;;;;;6.97;2.13;;;14.60;99.90;;;;;;4978860;28;20047;-90
2022/10/24 07:16:03;;;;;;;6.32;1.88;;;14.60;99.90;;;;;;4930658;28;20753;-90
2022/10/24 07:18:29;;;;;;;5.40;2.17;;;14.50;99.90;;;;;;4924789;28;20041;-90
2022/10/24 07:21:03;;;;;;;10.02;2.40;;;14.60;99.90;;;;;;4970842;28;20035;-88
2022/10/24 07:23:29;;;;;;;6.85;2.20;;;14.50;99.90;;;;;;4950577;28;20477;-89
2022/10/24 07:26:00;;;;;;;6.38;2.15;;;14.60;99.90;;;;;;4951184;28;20523;-91
2022/10/24 07:28:26;;;;;;;6.28;2.50;;;14.60;99.90;;;;;;4922456;28;20082;-89
2022/10/24 07:30:51;;;;;;;7.88;1.90;;;14.60;99.90;;;;;;4936287;28;20452;-90
2022/10/24 07:33:17;;;;;;;4.70;1.73;;;14.60;99.90;;;;;;4922185;28;20047;-90
2022/10/24 07:35:43;;;;;;;4.00;1.95;;;14.60;99.90;;;;;;4920552;28;20070;-90
2022/10/24 07:38:08;;;;;;;6.32;2.10;;;14.70;99.90;;;;;;4949001;28;20039;-90
2022/10/24 07:40:34;;;;;;;7.35;2.40;;;14.70;99.90;;;;;;4926315;28;20031;-92
2022/10/24 07:43:00;;;;;;;6.43;2.08;;;14.80;99.90;;;;;;4934281;28;20039;-94
2022/10/24 07:45:27;;;;;;;6.75;2.20;;;14.80;99.90;;;;;;4933538;28;20070;-92
2022/10/24 07:47:53;;;;;;;8.55;2.00;;;14.90;99.90;;;;;;4954352;28;20102;-91
2022/10/24 07:50:18;;;;;;;8.23;2.42;;;15.00;99.90;;;;;;4951585;28;20046;-92
2022/10/24 07:52:44;;;;;;;6.60;2.03;;;15.00;99.90;;;;;;4946602;28;20130;-93
2022/10/24 07:55:10;;;;;;;5.47;1.73;;;15.10;99.90;;;;;;4914605;28;20031;-92
2022/10/24 07:57:35;;;;;;;5.47;1.90;;;15.20;99.90;;;;;;4949642;28;20097;-95
2022/10/24 08:00:02;;;;;;;11.63;2.65;;;15.30;99.90;;;;;;4936796;28;20125;-94
2022/10/24 08:02:27;;;;;;;5.30;2.60;;;15.30;99.90;;;;;;4929820;28;20051;-93
2022/10/24 08:04:53;;;;;;;5.95;2.13;;;15.30;99.90;;;;;;4923717;28;20043;-93
2022/10/24 08:07:19;;;;;;;14.35;3.00;;;15.30;99.90;;;;;;4948137;28;20035;-92
2022/10/24 08:09:46;;;;;;;6.55;2.33;;;15.40;99.90;;;;;;4946720;28;20474;-91
2022/10/24 08:12:13;;;;;;;6.07;1.88;;;15.40;99.90;;;;;;4923675;28;20531;-91
2022/10/24 08:14:40;;;;;;;7.53;2.03;;;15.50;99.90;;;;;;4950387;28;20125;-91
2022/10/24 08:17:05;;;;;;;7.65;2.63;;;15.50;99.90;;;;;;4945804;28;20039;-91
2022/10/24 08:19:32;;;;;;;8.63;2.20;;;15.50;99.90;;;;;;4935105;28;20041;-91
2022/10/24 08:21:59;;;;;;;7.85;2.00;;;15.60;99.90;;;;;;4952264;28;20039;-91
2022/10/24 08:24:25;;;;;;;11.57;2.53;;;15.70;99.90;;;;;;4957043;28;20041;-92
2022/10/24 08:26:50;;;;;;;8.23;1.80;;;15.90;99.90;;;;;;4966593;28;20047;-92
2022/10/24 08:29:21;;;;;;;4.82;1.80;;;16.00;99.90;;;;;;4931584;28;20103;-93
2022/10/24 08:31:52;;;;;;;6.65;2.08;;;16.00;99.90;;;;;;4953000;28;20049;-92
2022/10/24 08:34:18;;;;;;;9.27;2.63;;;16.10;99.90;;;;;;4931527;28;20042;-92
2022/10/24 08:36:45;;;;;;;6.90;2.67;;;16.00;99.90;;;;;;4954266;28;20034;-91
2022/10/24 08:39:11;;;;;;;8.43;2.15;;;16.00;99.90;;;;;;4934342;28;20111;-91
2022/10/24 08:41:56;;;;;;;5.57;1.80;;;16.00;99.90;;;;;;4929917;28;20035;-90
2022/10/24 08:44:26;;;;;;;5.68;1.75;;;16.00;99.90;;;;;;4970738;28;20154;-92
2022/10/24 08:47:19;;;;;;;8.82;2.10;;;16.10;99.90;;;;;;4947115;28;20039;-88
2022/10/24 08:49:51;;;;;;;8.07;2.20;;;16.10;99.90;;;;;;4958533;28;20139;-88
2022/10/24 08:52:28;;;;;;;10.80;2.10;;;16.20;99.90;;;;;;4946887;28;20035;-88
2022/10/24 08:54:57;;;;;;;8.23;2.03;;;16.20;99.90;;;;;;4956146;28;20125;-88
2022/10/24 08:57:29;;;;;;;12.02;2.20;;;16.20;99.90;;;;;;4952936;28;20119;-91
2022/10/24 09:00:00;;;;;;;7.60;2.20;;;16.20;99.90;;;;;;4959826;28;20039;-87
2022/10/24 09:02:30;;;;;;;6.82;2.28;;;16.30;99.90;;;;;;4979449;28;20051;-87
2022/10/24 09:05:01;;;;;;;8.07;2.17;;;16.40;99.90;;;;;;4956265;28;20515;-87
2022/10/24 09:07:27;;;;;;;8.90;2.13;;;16.40;99.90;;;;;;4955127;28;20574;-87
2022/10/24 09:10:12;;;;;;;8.32;2.20;;;16.40;99.90;;;;;;4970911;28;20038;-87
2022/10/24 09:12:38;;;;;;;6.65;2.25;;;16.40;99.90;;;;;;4968451;28;20039;-87
2022/10/24 09:15:24;;;;;;;9.10;2.38;;;16.40;99.90;;;;;;4966045;28;20038;-87
2022/10/24 09:17:52;;;;;;;8.10;2.53;;;16.40;99.90;;;;;;4962457;28;20079;-86
2022/10/24 09:20:28;;;;;;;7.32;2.10;;;16.40;99.90;;;;;;4952907;28;20043;-86
2022/10/24 09:22:57;;;;;;;8.23;1.98;;;16.30;99.90;;;;;;4975255;28;20039;-87
2022/10/24 09:25:28;;;;;;;8.02;1.92;;;16.30;99.90;;;;;;4976827;28;20043;-86
2022/10/24 09:27:56;;;;;;;4.60;2.00;;;16.40;99.90;;;;;;4979316;28;20133;-87
2022/10/24 09:30:25;;;;;;;7.07;2.03;;;16.40;99.90;;;;;;4949533;28;20118;-87
2022/10/24 09:32:53;;;;;;;7.82;2.20;;;16.40;99.90;;;;;;4953670;28;20090;-87
2022/10/24 09:35:25;;;;;;;7.88;1.83;;;16.50;99.90;;;;;;4926940;28;20048;-87
2022/10/24 09:37:57;;;;;;;7.80;2.05;;;16.60;99.90;;;;;;4954521;28;20046;-87
2022/10/24 09:40:23;;;;;;;11.07;2.20;;;16.70;99.90;;;;;;4992655;28;20049;-87
2022/10/24 09:42:58;;;;;;;8.30;2.08;;;16.70;99.90;;;;;;4961814;28;20399;-87
2022/10/24 09:45:43;;;;;;;6.03;2.08;;;16.70;99.90;;;;;;4956800;28;20101;-87
2022/10/24 09:48:20;;;;;;;8.27;2.20;;;16.70;99.90;;;;;;4979360;28;20034;-87
2022/10/24 09:50:48;;;;;;;9.93;2.03;;;16.70;99.90;;;;;;4950700;28;20085;-87
2022/10/24 09:53:31;;;;;;;6.75;1.80;;;16.60;99.90;;;;;;4970698;28;20126;-89
2022/10/24 09:56:07;;;;;;;8.75;2.40;;;16.60;99.90;;;;;;4946429;28;20078;-89
2022/10/24 09:58:33;;;;;;;8.50;2.10;;;16.50;99.90;;;;;;4967509;28;20078;-88
2022/10/24 10:01:02;;;;;;;7.57;2.15;;;16.40;99.90;;;;;;4952297;28;20090;-88
2022/10/24 10:03:29;;;;;;;7.55;2.03;;;16.50;99.90;;;;;;4946916;28;20047;-88
2022/10/24 10:06:03;;;;;;;7.35;1.85;;;16.50;99.90;;;;;;4919677;28;20103;-87
2022/10/24 10:08:34;;;;;;;7.60;2.47;;;16.60;99.90;;;;;;4936560;28;20067;-87
2022/10/24 10:11:07;;;;;;;5.78;1.83;;;16.60;99.90;;;;;;4921993;28;20039;-87
2022/10/24 10:13:42;;;;;;;6.10;2.03;;;16.50;99.90;;;;;;4970543;28;20597;-85
2022/10/24 10:16:24;;;;;;;7.50;1.67;;;16.50;99.90;;;;;;4968970;28;20043;-86
2022/10/24 10:18:51;;;;;;;6.97;1.80;;;16.50;99.90;;;;;;4956421;28;20568;-85
2022/10/24 10:21:23;;;;;;;8.40;1.80;;;16.50;99.90;;;;;;4920662;28;20109;-86
2022/10/24 10:23:54;;;;;;;9.43;1.95;;;16.40;99.90;;;;;;4971748;28;20049;-85
2022/10/24 10:26:20;;;;;;;10.95;1.90;;;16.50;99.90;;;;;;4946168;28;20224;-85
2022/10/24 10:29:02;;;;;;;6.03;1.73;;;16.40;99.90;;;;;;4940539;28;20567;-85
2022/10/24 10:31:34;;;;;;;6.78;1.98;;;16.40;99.90;;;;;;4951324;28;20535;-85
2022/10/24 10:34:14;;;;;;;2.92;1.15;;;16.20;99.90;;;;;;4951932;28;20702;-85
2022/10/24 10:37:07;;;;;;;4.45;1.35;;;16.10;99.90;;;;;;4968448;28;20051;-85
2022/10/24 10:39:54;;;;;;;7.15;1.90;;;15.90;99.90;;;;;;4956797;28;20157;-85
2022/10/24 10:42:28;;;;;;;4.35;1.85;;;15.80;99.90;;;;;;4949824;28;20049;-85
2022/10/24 10:45:18;;;;;;;10.10;1.90;;;15.60;99.90;;;;;;4951539;28;20042;-85
2022/10/24 10:48:17;;;;;;;6.57;1.90;;;15.40;99.90;;;;;;4950801;28;20054;-85
2022/10/24 10:50:42;;;;;;;4.22;1.65;;;15.30;99.90;;;;;;4949139;28;20729;-85
2022/10/24 10:53:37;;;;;;;3.67;1.55;;;15.30;99.90;;;;;;4940648;28;20064;-85
2022/10/24 10:56:30;;;;;;;3.55;1.50;;;15.50;99.90;;;;;;4937437;28;20101;-85
2022/10/24 10:59:39;;;;;;;5.63;1.77;;;15.60;99.90;;;;;;4947373;28;20050;-85
2022/10/24 11:02:21;;;;;;;4.57;1.85;;;15.90;99.90;;;;;;4949142;28;20047;-85
2022/10/24 11:05:15;;;;;;;7.88;1.90;;;16.00;99.90;;;;;;4940297;28;20035;-86
2022/10/24 11:08:14;;;;;;;5.40;2.20;;;16.30;99.90;;;;;;4936043;28;20043;-85
2022/10/24 11:10:52;;;;;;;7.03;2.42;;;16.40;99.90;;;;;;4948965;28;20084;-85
2022/10/24 11:13:45;;;;;;;8.73;2.38;;;16.60;99.90;;;;;;4947432;28;20043;-85
2022/10/24 11:16:21;;;;;;;7.03;1.77;;;16.60;99.90;;;;;;4927268;28;20065;-85
2022/10/24 11:18:50;;;;;;;8.30;2.25;;;16.60;99.90;;;;;;4949564;28;20047;-85
2022/10/24 11:21:20;;;;;;;6.53;1.45;;;16.70;99.90;;;;;;4952726;28;20042;-85
2022/10/24 11:24:15;;;;;;;5.32;1.77;;;16.70;99.90;;;;;;4980103;28;20046;-85
2022/10/24 11:26:47;;;;;;;5.70;1.80;;;16.80;99.90;;;;;;4959568;28;20104;-85
2022/10/24 11:29:37;;;;;;;6.50;1.98;;;16.80;99.90;;;;;;4983121;28;20043;-85
2022/10/24 11:32:39;;;;;;;5.57;1.30;;;16.80;99.90;;;;;;4956554;28;20039;-86
2022/10/24 11:35:24;;;;;;;4.68;1.45;;;16.90;99.90;;;;;;4983301;28;20039;-86
2022/10/24 11:38:14;;;;;;;10.57;1.98;;;17.00;99.90;;;;;;4973227;28;20047;-85
2022/10/24 11:40:44;;;;;;;4.55;2.05;;;17.10;99.90;;;;;;4934168;28;20089;-84
2022/10/24 11:43:29;;;;;;;4.35;1.30;;;17.00;99.90;;;;;;4947593;28;20031;-85
2022/10/24 11:46:13;;;;;;;4.78;2.05;;;16.90;99.90;;;;;;4949507;28;20042;-85
2022/10/24 11:48:47;;;;;;;7.43;1.77;;;16.80;99.90;;;;;;4973469;28;20035;-86
2022/10/24 11:51:34;;;;;;;6.93;1.60;;;16.60;99.90;;;;;;4954940;28;20035;-86
2022/10/24 11:54:09;;;;;;;9.65;1.50;;;16.50;99.90;;;;;;4983816;28;20053;-86
2022/10/24 11:56:48;;;;;;;4.47;1.50;;;16.60;99.90;;;;;;4980393;28;20051;-86
2022/10/24 11:59:24;;;;;;;9.32;1.75;;;16.60;99.90;;;;;;4947770;28;20034;-87
2022/10/24 12:02:10;;;;;;;7.47;1.88;;;17.20;99.90;;;;;;4951164;28;20118;-88
2022/10/24 12:04:51;;;;;;;4.97;1.40;;;16.60;99.90;;;;;;4977538;28;20030;-86
2022/10/24 12:07:48;;;;;;;3.15;1.20;;;16.60;99.90;;;;;;4980707;28;20046;-85
2022/10/24 12:10:28;;;;;;;6.45;1.70;;;16.50;99.90;;;;;;4956668;28;20086;-86
2022/10/24 12:13:00;;;;;;;4.22;1.83;;;16.50;99.90;;;;;;4953004;28;20638;-85
2022/10/24 12:15:44;;;;;;;6.38;1.73;;;16.50;99.90;;;;;;4960366;28;20811;-86
2022/10/24 12:18:33;;;;;;;4.22;1.75;;;16.40;99.90;;;;;;4948798;28;20046;-86
2022/10/24 12:21:07;;;;;;;6.05;1.80;;;16.40;99.90;;;;;;4949630;28;20038;-86
2022/10/24 12:23:33;;;;;;;4.72;1.60;;;16.40;99.90;;;;;;4969862;28;20085;-92
2022/10/24 12:26:13;;;;;;;5.97;1.63;;;16.30;99.90;;;;;;4955713;28;20035;-90
2022/10/24 12:28:40;;;;;;;7.63;2.22;;;16.30;99.90;;;;;;4964735;28;20464;-91
2022/10/24 12:31:14;;;;;;;4.00;1.70;;;16.30;99.90;;;;;;4961578;28;20039;-90
2022/10/24 12:34:07;;;;;;;6.32;1.60;;;16.40;99.90;;;;;;4957224;28;20124;-90
2022/10/24 12:37:08;;;;;;;6.13;1.83;;;16.30;99.90;;;;;;4976703;28;20039;-90
2022/10/24 12:39:40;;;;;;;4.10;1.35;;;16.40;99.90;;;;;;4982705;28;20066;-90
2022/10/24 12:42:18;;;;;;;4.30;1.63;;;16.30;99.90;;;;;;4950049;28;20359;-90
2022/10/24 12:45:06;;;;;;;6.63;1.80;;;16.40;99.90;;;;;;4960357;28;20514;-90
2022/10/24 12:47:54;;;;;;;5.57;1.60;;;16.40;99.90;;;;;;4951928;28;20050;-89
2022/10/24 12:50:22;;;;;;;5.63;1.52;;;16.30;99.90;;;;;;4976569;28;20077;-89
2022/10/24 12:53:01;;;;;;;4.28;1.50;;;16.40;99.90;;;;;;4960448;28;20034;-89
2022/10/24 12:55:35;;;;;;;6.38;1.60;;;16.40;99.90;;;;;;4953348;28;20129;-90
2022/10/24 12:58:22;;;;;;;4.10;1.48;;;16.40;99.90;;;;;;4987454;28;20035;-90
2022/10/24 13:01:05;;;;;;;4.47;1.38;;;16.30;99.90;;;;;;4951873;28;20055;-87
2022/10/24 13:03:41;;;;;;;4.75;1.25;;;16.30;99.90;;;;;;4973222;28;20097;-87
2022/10/24 13:06:50;;;;;;;6.03;1.92;;;16.40;99.90;;;;;;4973156;28;20050;-87
2022/10/24 13:09:28;;;;;;;5.60;1.52;;;16.40;99.90;;;;;;4953417;28;20058;-87